createdAt,value
2018-09-12T00:00:22.224Z,59.35
2018-09-12T00:02:50.743Z,59.17
2018-09-12T00:05:19.217Z,59.66
2018-09-12T00:07:47.748Z,59.80
2018-09-12T00:10:16.288Z,59.61
2018-09-12T00:12:44.832Z,59.46
2018-09-12T00:15:13.984Z,60.10
2018-09-12T00:17:42.687Z,60.29
2018-09-12T00:20:11.187Z,59.75
2018-09-12T00:22:39.684Z,59.73
2018-09-12T00:25:08.261Z,60.17
2018-09-12T00:27:36.742Z,60.20
2018-09-12T00:30:06.027Z,60.03
2018-09-12T00:32:34.915Z,60.10
2018-09-12T00:35:03.410Z,60.23
2018-09-12T00:37:31.863Z,60.18
2018-09-12T00:40:00.387Z,60.21
2018-09-12T00:42:28.940Z,60.51
2018-09-12T00:44:57.548Z,60.13
2018-09-12T00:47:26.052Z,60.43
2018-09-12T00:49:54.600Z,60.45
2018-09-12T00:52:23.124Z,60.54
2018-09-12T00:54:52.675Z,60.82
2018-09-12T00:57:21.139Z,60.95
2018-09-12T00:59:49.820Z,60.90
2018-09-12T01:02:18.418Z,61.01
2018-09-12T01:04:46.990Z,61.34
2018-09-12T01:07:16.260Z,60.91
2018-09-12T01:09:45.751Z,61.40
2018-09-12T01:12:14.200Z,61.12
2018-09-12T01:14:42.722Z,61.27
2018-09-12T01:17:11.181Z,60.94
2018-09-12T01:19:40.741Z,61.43
2018-09-12T01:22:09.248Z,61.50
2018-09-12T01:24:37.875Z,61.84
2018-09-12T01:27:06.416Z,61.48
2018-09-12T01:29:34.933Z,61.39
2018-09-12T01:32:03.445Z,62.14
2018-09-12T01:34:31.916Z,61.69
2018-09-12T01:37:00.429Z,61.97
2018-09-12T01:39:28.931Z,62.63
2018-09-12T01:41:57.578Z,62.40
2018-09-12T01:44:26.270Z,63.02
2018-09-12T01:46:54.783Z,62.64
2018-09-12T01:49:23.359Z,63.87
2018-09-12T01:51:51.915Z,63.79
2018-09-12T01:54:20.506Z,63.14
2018-09-12T01:56:49.077Z,63.29
2018-09-12T01:59:17.668Z,63.57
2018-09-12T02:01:46.488Z,63.03
2018-09-12T02:04:15.139Z,62.98
2018-09-12T02:06:43.633Z,63.45
2018-09-12T02:09:14.166Z,63.40
2018-09-12T02:11:42.780Z,63.24
2018-09-12T02:14:11.344Z,63.39
2018-09-12T02:16:40.412Z,63.25
2018-09-12T02:19:08.895Z,62.46
2018-09-12T02:21:37.605Z,62.82
2018-09-12T02:24:05.776Z,62.85
2018-09-12T02:26:34.320Z,63.27
2018-09-12T02:29:02.938Z,62.92
2018-09-12T02:31:31.480Z,63.33
2018-09-12T02:33:59.979Z,63.21
2018-09-12T02:36:29.487Z,64.03
2018-09-12T02:38:59.155Z,63.87
2018-09-12T02:41:27.871Z,64.49
2018-09-12T02:43:56.459Z,64.63
2018-09-12T02:46:25.056Z,64.39
2018-09-12T02:48:53.824Z,64.46
2018-09-12T02:51:22.423Z,64.42
2018-09-12T02:53:51.076Z,65.04
2018-09-12T02:56:20.476Z,64.55
2018-09-12T02:58:49.583Z,65.45
2018-09-12T03:01:18.088Z,65.20
2018-09-12T03:03:46.669Z,64.97
2018-09-12T03:06:15.436Z,64.91
2018-09-12T03:08:44.424Z,64.83
2018-09-12T03:11:12.925Z,65.50
2018-09-12T03:13:41.591Z,64.84
2018-09-12T03:16:11.283Z,65.73
2018-09-12T03:18:39.980Z,65.27
2018-09-12T03:21:08.689Z,66.04
2018-09-12T03:23:37.161Z,65.54
2018-09-12T03:26:06.550Z,66.10
2018-09-12T03:28:35.100Z,66.06
2018-09-12T03:31:03.644Z,66.32
2018-09-12T03:33:32.239Z,66.56
2018-09-12T03:36:01.561Z,66.83
2018-09-12T03:38:30.150Z,66.97
2018-09-12T03:40:58.938Z,67.09
2018-09-12T03:43:27.545Z,66.60
2018-09-12T03:45:56.884Z,67.21
2018-09-12T03:48:25.418Z,67.37
2018-09-12T03:50:54.551Z,67.40
2018-09-12T03:53:23.141Z,67.25
2018-09-12T03:55:51.493Z,66.93
2018-09-12T03:58:20.255Z,67.17
2018-09-12T04:00:48.779Z,66.85
2018-09-12T04:03:17.403Z,66.85
2018-09-12T04:05:45.940Z,66.85
2018-09-12T04:08:14.481Z,67.60
2018-09-12T04:10:42.972Z,67.08
2018-09-12T04:13:11.545Z,66.94
2018-09-12T04:15:40.066Z,66.90
2018-09-12T04:18:08.653Z,67.62
2018-09-12T04:20:37.660Z,66.69
2018-09-12T04:23:06.274Z,67.14
2018-09-12T04:25:35.136Z,67.41
2018-09-12T04:28:03.635Z,67.62
2018-09-12T04:30:32.043Z,67.51
2018-09-12T04:33:00.626Z,67.04
2018-09-12T04:35:29.627Z,67.14
2018-09-12T04:37:58.134Z,67.21
2018-09-12T04:40:26.612Z,67.55
2018-09-12T04:42:55.403Z,67.79
2018-09-12T04:45:23.817Z,68.29
2018-09-12T04:47:52.337Z,68.22
2018-09-12T04:50:20.855Z,68.83
2018-09-12T04:52:49.283Z,68.56
2018-09-12T04:55:17.982Z,69.09
2018-09-12T04:57:46.560Z,68.75
2018-09-12T05:00:15.422Z,69.76
2018-09-12T05:02:44.163Z,69.12
2018-09-12T05:05:12.595Z,69.47
2018-09-12T05:07:41.106Z,69.87
2018-09-12T05:10:09.681Z,69.45
2018-09-12T05:12:38.044Z,70.00
2018-09-12T05:15:06.835Z,69.62
2018-09-12T05:17:35.298Z,70.39
2018-09-12T05:20:03.732Z,69.75
2018-09-12T05:22:32.245Z,70.35
2018-09-12T05:25:00.690Z,70.04
2018-09-12T05:27:29.144Z,70.22
2018-09-12T05:29:57.551Z,69.96
2018-09-12T05:32:25.985Z,70.36
2018-09-12T05:34:54.523Z,69.94
2018-09-12T05:37:23.373Z,70.53
2018-09-12T05:39:51.862Z,69.79
2018-09-12T05:42:20.266Z,70.37
2018-09-12T05:44:48.694Z,70.50
2018-09-12T05:47:17.244Z,70.38
2018-09-12T05:49:45.674Z,70.35
2018-09-12T05:52:23.632Z,70.08
2018-09-12T05:54:52.451Z,70.09
2018-09-12T05:57:20.935Z,69.66
2018-09-12T05:59:49.499Z,69.94
2018-09-12T06:02:17.992Z,70.09
2018-09-12T06:04:46.457Z,69.85
2018-09-12T06:07:15.164Z,69.55
2018-09-12T06:09:43.535Z,69.07
2018-09-12T06:12:11.988Z,67.96
2018-09-12T06:14:40.420Z,67.92
2018-09-12T06:17:08.865Z,66.64
2018-09-12T06:19:37.382Z,66.70
2018-09-12T06:22:05.868Z,67.53
2018-09-12T06:24:34.228Z,67.01
2018-09-12T06:27:02.663Z,66.81
2018-09-12T06:29:31.092Z,66.49
2018-09-12T06:31:59.641Z,66.37
2018-09-12T06:34:28.201Z,65.37
2018-09-12T06:36:57.248Z,65.41
2018-09-12T06:39:25.715Z,64.41
2018-09-12T06:41:54.140Z,64.73
2018-09-12T06:44:22.669Z,64.71
2018-09-12T06:46:51.053Z,65.12
2018-09-12T06:49:19.669Z,64.56
2018-09-12T06:51:48.290Z,63.96
2018-09-12T06:54:16.710Z,63.77
2018-09-12T06:56:45.149Z,63.62
2018-09-12T06:59:13.638Z,63.57
2018-09-12T07:01:42.065Z,63.15
2018-09-12T07:04:10.462Z,63.14
2018-09-12T07:06:38.893Z,63.50
2018-09-12T07:09:09.019Z,63.89
2018-09-12T07:11:37.521Z,63.75
2018-09-12T07:14:06.182Z,64.16
2018-09-12T07:16:34.711Z,63.81
2018-09-12T07:19:03.336Z,64.35
2018-09-12T07:21:32.013Z,64.05
2018-09-12T07:24:00.960Z,64.51
2018-09-12T07:26:29.437Z,64.64
2018-09-12T07:28:57.907Z,64.70
2018-09-12T07:31:26.420Z,65.40
2018-09-12T07:33:55.458Z,65.57
2018-09-12T07:36:24.713Z,66.17
2018-09-12T07:38:53.700Z,65.32
2018-09-12T07:41:22.835Z,64.83
2018-09-12T07:43:52.189Z,64.90
2018-09-12T07:46:21.358Z,65.15
2018-09-12T07:48:50.084Z,65.29
2018-09-12T07:51:19.759Z,65.06
2018-09-12T07:53:48.128Z,65.41
2018-09-12T07:56:17.573Z,65.32
2018-09-12T07:58:45.998Z,65.77
2018-09-12T08:01:15.218Z,66.36
2018-09-12T08:03:43.803Z,66.60
2018-09-12T08:06:12.249Z,66.60
2018-09-12T08:08:41.366Z,66.46
2018-09-12T08:11:10.859Z,65.52
2018-09-12T08:13:39.491Z,66.22
2018-09-12T08:16:08.452Z,64.74
2018-09-12T08:18:37.226Z,63.41
2018-09-12T08:21:05.793Z,62.44
2018-09-12T08:23:34.169Z,62.80
2018-09-12T08:26:03.033Z,62.94
2018-09-12T08:28:31.397Z,63.31
2018-09-12T08:30:59.885Z,62.76
2018-09-12T08:33:28.770Z,62.36
2018-09-12T08:35:58.867Z,61.39
2018-09-12T08:38:27.884Z,61.47
2018-09-12T08:40:57.720Z,61.05
2018-09-12T08:43:26.143Z,59.75
2018-09-12T08:45:54.643Z,60.82
2018-09-12T08:48:23.043Z,60.80
2018-09-12T08:50:51.855Z,61.48
2018-09-12T08:53:21.301Z,61.17
2018-09-12T08:55:50.512Z,60.90
2018-09-12T08:58:19.986Z,60.20
2018-09-12T09:00:49.140Z,59.83
2018-09-12T09:03:17.511Z,61.30
2018-09-12T09:05:46.275Z,60.88
2018-09-12T09:08:14.711Z,60.53
2018-09-12T09:10:43.192Z,59.27
2018-09-12T09:13:11.617Z,60.45
2018-09-12T09:15:40.136Z,59.85
2018-09-12T09:18:08.692Z,58.44
2018-09-12T09:20:37.483Z,59.09
2018-09-12T09:23:05.974Z,58.35
2018-09-12T09:25:34.395Z,58.87
2018-09-12T09:28:02.886Z,59.03
2018-09-12T09:30:32.883Z,58.03
2018-09-12T09:33:01.376Z,59.47
2018-09-12T09:35:30.637Z,58.96
2018-09-12T09:37:59.825Z,59.56
2018-09-12T09:40:28.294Z,59.61
2018-09-12T09:42:56.743Z,59.23
2018-09-12T09:45:26.024Z,59.99
2018-09-12T09:47:54.460Z,59.50
2018-09-12T09:50:23.002Z,59.75
2018-09-12T09:52:51.528Z,60.58
2018-09-12T09:55:20.015Z,59.86
2018-09-12T09:57:48.487Z,60.89
2018-09-12T10:00:22.238Z,61.16
2018-09-12T10:02:56.006Z,60.51
2018-09-12T10:05:29.475Z,60.82
2018-09-12T10:08:04.160Z,59.91
2018-09-12T10:10:32.522Z,59.54
2018-09-12T10:13:01.047Z,59.53
2018-09-12T10:15:29.470Z,59.65
2018-09-12T10:17:57.967Z,60.06
2018-09-12T10:20:26.477Z,59.80
2018-09-12T10:22:55.008Z,60.08
2018-09-12T10:25:23.448Z,59.67
2018-09-12T10:27:51.885Z,59.99
2018-09-12T10:30:20.301Z,59.69
2018-09-12T10:32:48.771Z,57.91
2018-09-12T10:35:17.326Z,57.82
2018-09-12T10:37:46.099Z,56.10
2018-09-12T10:40:14.695Z,56.60
2018-09-12T10:42:43.630Z,56.29
2018-09-12T10:45:12.446Z,56.62
2018-09-12T10:47:40.899Z,56.45
2018-09-12T10:50:09.888Z,55.45
2018-09-12T10:52:38.300Z,54.26
2018-09-12T10:55:10.517Z,53.99
2018-09-12T10:57:39.038Z,54.06
2018-09-12T11:00:08.209Z,53.59
2018-09-12T11:02:36.700Z,54.10
2018-09-12T11:05:05.276Z,54.58
2018-09-12T11:07:33.816Z,55.94
2018-09-12T11:10:02.293Z,56.34
2018-09-12T11:12:32.525Z,57.11
2018-09-12T11:15:02.054Z,57.82
2018-09-12T11:17:30.896Z,58.06
2018-09-12T11:19:59.375Z,57.22
2018-09-12T11:22:27.875Z,57.18
2018-09-12T11:24:56.608Z,57.72
2018-09-12T11:27:25.514Z,58.94
2018-09-12T11:29:53.936Z,58.18
2018-09-12T11:32:22.342Z,58.31
2018-09-12T11:34:50.932Z,58.22
2018-09-12T11:37:19.612Z,58.58
2018-09-12T11:39:48.289Z,59.02
2018-09-12T11:42:16.722Z,59.47
2018-09-12T11:44:47.909Z,59.27
2018-09-12T11:47:16.335Z,59.33
2018-09-12T11:49:44.842Z,58.67
2018-09-12T11:52:13.509Z,57.88
2018-09-12T11:54:42.478Z,57.58
2018-09-12T11:57:10.973Z,58.22
2018-09-12T11:59:39.425Z,58.33
2018-09-12T12:02:08.494Z,59.13
2018-09-12T12:04:39.744Z,58.60
2018-09-12T12:07:08.226Z,58.74
2018-09-12T12:09:38.200Z,58.79
2018-09-12T12:12:06.681Z,59.20
2018-09-12T12:14:35.337Z,59.42
2018-09-12T12:17:04.049Z,58.82
2018-09-12T12:19:32.510Z,59.79
2018-09-12T12:22:01.129Z,58.85
2018-09-12T12:24:29.796Z,59.22
2018-09-12T12:26:58.929Z,59.81
2018-09-12T12:29:27.748Z,59.36
2018-09-12T12:31:56.300Z,59.97
2018-09-12T12:34:24.716Z,59.43
2018-09-12T12:36:53.545Z,58.97
2018-09-12T12:39:21.932Z,59.60
2018-09-12T12:41:50.564Z,59.02
2018-09-12T12:44:19.457Z,59.83
2018-09-12T12:46:48.528Z,59.27
2018-09-12T12:49:16.967Z,59.93
2018-09-12T12:51:45.731Z,60.71
2018-09-12T12:54:14.112Z,60.71
2018-09-12T12:56:42.932Z,61.36
2018-09-12T12:59:11.423Z,62.20
2018-09-12T13:01:40.049Z,62.66
2018-09-12T13:04:09.330Z,63.12
2018-09-12T13:06:37.717Z,62.99
2018-09-12T13:09:08.258Z,62.95
2018-09-12T13:11:37.258Z,62.58
2018-09-12T13:14:05.788Z,63.80
2018-09-12T13:16:34.234Z,64.11
2018-09-12T13:19:03.482Z,63.83
2018-09-12T13:21:31.962Z,64.11
2018-09-12T13:24:00.594Z,64.34
2018-09-12T13:26:31.299Z,65.33
2018-09-12T13:28:59.975Z,65.33
2018-09-12T13:31:28.467Z,65.66
2018-09-12T13:33:56.914Z,65.86
2018-09-12T13:36:26.047Z,66.64
2018-09-12T13:38:54.645Z,66.78
2018-09-12T13:41:23.100Z,69.04
2018-09-12T13:43:51.783Z,68.49
2018-09-12T13:46:20.290Z,68.05
2018-09-12T13:48:48.731Z,69.65
2018-09-12T13:51:17.147Z,69.74
2018-09-12T13:53:45.517Z,69.24
2018-09-12T13:56:13.965Z,69.81
2018-09-12T13:58:42.380Z,69.90
2018-09-12T14:01:10.973Z,70.95
2018-09-12T14:03:39.441Z,71.34
2018-09-12T14:06:08.076Z,71.40
2018-09-12T14:08:36.589Z,71.45
2018-09-12T14:11:05.265Z,71.18
2018-09-12T14:13:33.733Z,71.29
2018-09-12T14:16:02.323Z,70.92
2018-09-12T14:18:30.836Z,70.86
2018-09-12T14:20:59.393Z,70.94
2018-09-12T14:23:27.914Z,70.77
2018-09-12T14:25:56.465Z,70.65
2018-09-12T14:28:25.222Z,70.77
2018-09-12T14:30:53.631Z,71.18
2018-09-12T14:33:22.173Z,71.20
2018-09-12T14:35:50.666Z,71.26
2018-09-12T14:38:19.187Z,70.72
2018-09-12T14:40:47.720Z,71.59
2018-09-12T14:43:16.153Z,71.64
2018-09-12T14:45:44.591Z,71.83
2018-09-12T14:48:13.302Z,71.11
2018-09-12T14:50:41.931Z,72.04
2018-09-12T14:53:10.458Z,71.47
2018-09-12T14:55:38.938Z,71.39
2018-09-12T14:58:07.774Z,72.34
2018-09-12T15:00:36.220Z,73.42
2018-09-12T15:03:06.408Z,73.98
2018-09-12T15:05:36.349Z,73.54
2018-09-12T15:08:04.982Z,73.52
2018-09-12T15:10:33.736Z,73.68
2018-09-12T15:13:03.038Z,73.78
2018-09-12T15:15:31.597Z,73.72
2018-09-12T15:18:01.519Z,73.81
2018-09-12T15:20:29.966Z,73.36
2018-09-12T15:22:58.631Z,74.65
2018-09-12T15:25:27.131Z,73.89
2018-09-12T15:27:55.609Z,74.07
2018-09-12T15:30:24.384Z,74.21
2018-09-12T15:32:52.973Z,74.10
2018-09-12T15:35:22.021Z,74.94
2018-09-12T15:37:50.530Z,74.74
2018-09-12T15:40:19.226Z,75.14
2018-09-12T15:42:48.236Z,74.89
2018-09-12T15:45:16.802Z,75.47
2018-09-12T15:47:45.759Z,75.47
2018-09-12T15:50:14.221Z,75.26
2018-09-12T15:52:42.769Z,74.77
2018-09-12T15:55:11.378Z,73.92
2018-09-12T15:57:40.020Z,73.34
2018-09-12T16:00:08.504Z,73.51
2018-09-12T16:02:37.045Z,73.04
2018-09-12T16:05:06.317Z,73.31
2018-09-12T16:07:35.004Z,74.27
2018-09-12T16:10:03.763Z,74.47
2018-09-12T16:12:32.318Z,74.19
2018-09-12T16:15:01.227Z,74.27
2018-09-12T16:17:30.312Z,73.98
2018-09-12T16:19:59.665Z,74.00
2018-09-12T16:22:28.413Z,74.35
2018-09-12T16:24:57.400Z,73.70
2018-09-12T16:27:26.137Z,73.66
2018-09-12T16:29:55.021Z,73.59
2018-09-12T16:32:23.669Z,74.44
2018-09-12T16:34:52.356Z,74.29
2018-09-12T16:37:21.078Z,74.86
2018-09-12T16:39:49.746Z,74.48
2018-09-12T16:42:18.643Z,74.18
2018-09-12T16:44:47.298Z,74.86
2018-09-12T16:47:15.962Z,74.68
2018-09-12T16:49:45.069Z,75.48
2018-09-12T16:52:13.915Z,75.15
2018-09-12T16:54:42.544Z,74.87
2018-09-12T16:57:11.240Z,75.80
2018-09-12T16:59:39.962Z,75.76
2018-09-12T17:02:08.986Z,76.84
2018-09-12T17:04:37.826Z,76.63
2018-09-12T17:07:06.525Z,76.11
2018-09-12T17:09:35.359Z,76.98
2018-09-12T17:12:04.720Z,76.25
2018-09-12T17:14:33.260Z,77.85
2018-09-12T17:17:01.873Z,77.15
2018-09-12T17:19:31.574Z,78.47
2018-09-12T17:22:01.308Z,78.50
2018-09-12T17:24:30.281Z,79.01
2018-09-12T17:26:59.276Z,79.77
2018-09-12T17:29:28.051Z,79.80
2018-09-12T17:31:57.442Z,80.77
2018-09-12T17:34:26.310Z,80.08
2018-09-12T17:36:55.144Z,80.00
2018-09-12T17:39:24.082Z,80.10
2018-09-12T17:41:53.878Z,81.01
2018-09-12T17:44:22.829Z,79.90
2018-09-12T17:46:52.642Z,80.33
2018-09-12T17:49:22.472Z,81.79
2018-09-12T17:51:51.653Z,81.70
2018-09-12T17:54:22.804Z,81.79
2018-09-12T17:56:51.649Z,82.27
2018-09-12T17:59:20.403Z,81.84
2018-09-12T18:01:51.103Z,81.71
2018-09-12T18:04:20.172Z,82.77
2018-09-12T18:06:49.032Z,83.26
2018-09-12T18:09:17.865Z,83.15
2018-09-12T18:11:46.408Z,83.23
2018-09-12T18:14:14.899Z,82.62
2018-09-12T18:16:43.401Z,82.33
2018-09-12T18:19:12.062Z,82.83
2018-09-12T18:21:40.544Z,83.04
2018-09-12T18:24:09.288Z,84.53
2018-09-12T18:26:38.020Z,84.31
2018-09-12T18:29:06.845Z,83.74
2018-09-12T18:31:35.475Z,84.03
2018-09-12T18:34:04.185Z,83.99
2018-09-12T18:36:32.795Z,84.55
2018-09-12T18:39:01.427Z,85.42
2018-09-12T18:41:30.130Z,85.05
2018-09-12T18:43:59.419Z,84.31
2018-09-12T18:46:30.104Z,84.34
2018-09-12T18:48:58.862Z,83.48
2018-09-12T18:51:27.555Z,83.35
2018-09-12T18:53:56.219Z,83.37
2018-09-12T18:56:25.097Z,83.73
2018-09-12T18:58:53.575Z,83.74
2018-09-12T19:01:22.103Z,84.41
2018-09-12T19:03:50.699Z,84.31
2018-09-12T19:06:19.266Z,85.10
2018-09-12T19:08:47.687Z,84.85
2018-09-12T19:11:16.362Z,85.34
2018-09-12T19:13:44.901Z,84.76
2018-09-12T19:16:14.893Z,85.14
2018-09-12T19:18:44.250Z,85.25
2018-09-12T19:21:13.158Z,84.56
2018-09-12T19:23:42.201Z,85.73
2018-09-12T19:26:10.948Z,85.88
2018-09-12T19:28:39.466Z,85.90
2018-09-12T19:31:08.093Z,85.19
2018-09-12T19:33:36.595Z,84.83
2018-09-12T19:36:05.210Z,85.78
2018-09-12T19:38:33.810Z,85.87
2018-09-12T19:41:02.368Z,85.84
2018-09-12T19:43:31.492Z,85.28
2018-09-12T19:46:00.035Z,85.60
2018-09-12T19:48:28.612Z,85.17
2018-09-12T19:50:57.288Z,85.31
2018-09-12T19:53:27.197Z,85.75
2018-09-12T19:55:55.873Z,86.10
2018-09-12T19:58:24.544Z,85.36
2018-09-12T20:00:53.028Z,86.57
2018-09-12T20:03:21.502Z,86.79
2018-09-12T20:05:50.025Z,86.57
2018-09-12T20:08:18.720Z,85.90
2018-09-12T20:10:47.205Z,84.91
2018-09-12T20:13:15.843Z,84.80
2018-09-12T20:15:44.430Z,84.69
2018-09-12T20:18:13.631Z,83.71
2018-09-12T20:20:42.820Z,83.61
2018-09-12T20:23:11.705Z,82.70
2018-09-12T20:25:40.155Z,83.35
2018-09-12T20:28:08.654Z,82.65
2018-09-12T20:30:37.163Z,82.64
2018-09-12T20:33:06.023Z,81.32
2018-09-12T20:35:34.653Z,82.12
2018-09-12T20:38:03.254Z,82.38
2018-09-12T20:40:31.777Z,82.26
2018-09-12T20:43:00.165Z,82.71
2018-09-12T20:45:28.643Z,83.39
2018-09-12T20:47:57.684Z,83.05
2018-09-12T20:50:26.122Z,82.86
2018-09-12T20:52:55.199Z,84.45
2018-09-12T20:55:24.494Z,84.27
2018-09-12T20:57:53.048Z,84.79
2018-09-12T21:00:21.487Z,84.81
2018-09-12T21:02:50.047Z,84.78
2018-09-12T21:05:18.443Z,84.29
2018-09-12T21:07:47.002Z,85.26
2018-09-12T21:10:15.654Z,84.83
2018-09-12T21:12:44.135Z,84.91
2018-09-12T21:15:12.647Z,85.27
2018-09-12T21:17:42.183Z,84.71
2018-09-12T21:20:10.585Z,85.01
2018-09-12T21:22:39.028Z,85.18
2018-09-12T21:25:07.508Z,85.88
2018-09-12T21:27:35.965Z,85.41
2018-09-12T21:30:04.952Z,85.98
2018-09-12T21:32:33.890Z,86.19
2018-09-12T21:35:02.658Z,85.18
2018-09-12T21:37:31.086Z,85.60
2018-09-12T21:39:59.509Z,85.86
2018-09-12T21:42:28.117Z,84.75
2018-09-12T21:44:56.659Z,84.82
2018-09-12T21:47:25.112Z,85.48
2018-09-12T21:49:54.432Z,85.37
2018-09-12T21:52:23.518Z,85.37
2018-09-12T21:54:52.028Z,84.66
2018-09-12T21:57:20.731Z,84.70
2018-09-12T21:59:49.737Z,84.55
2018-09-12T22:02:18.610Z,84.21
2018-09-12T22:04:47.096Z,85.23
2018-09-12T22:07:15.647Z,84.54
2018-09-12T22:09:44.085Z,84.83
2018-09-12T22:12:13.132Z,84.51
2018-09-12T22:14:41.651Z,84.45
2018-09-12T22:17:10.102Z,84.11
2018-09-12T22:19:38.489Z,84.10
2018-09-12T22:22:06.965Z,84.01
2018-09-12T22:24:35.876Z,83.51
2018-09-12T22:27:04.362Z,83.17
2018-09-12T22:29:32.791Z,82.15
2018-09-12T22:32:01.215Z,82.50
2018-09-12T22:34:29.708Z,82.19
2018-09-12T22:36:58.306Z,82.74
2018-09-12T22:39:26.779Z,82.35
2018-09-12T22:41:55.268Z,83.01
2018-09-12T22:44:23.692Z,83.31
2018-09-12T22:46:52.149Z,82.89
2018-09-12T22:49:20.544Z,82.68
2018-09-12T22:51:48.984Z,82.44
2018-09-12T22:54:18.114Z,81.86
2018-09-12T22:56:46.518Z,82.14
2018-09-12T22:59:14.958Z,82.17
2018-09-12T23:01:43.868Z,81.88
2018-09-12T23:04:12.760Z,83.02
2018-09-12T23:06:41.242Z,83.05
2018-09-12T23:09:10.415Z,82.59
2018-09-12T23:11:39.222Z,83.53
2018-09-12T23:14:08.291Z,82.77
2018-09-12T23:16:37.298Z,82.57
2018-09-12T23:19:05.783Z,82.89
2018-09-12T23:21:34.324Z,83.65
2018-09-12T23:24:02.742Z,83.76
2018-09-12T23:26:31.231Z,83.32
2018-09-12T23:28:59.991Z,83.54
2018-09-12T23:31:28.449Z,83.22
2018-09-12T23:33:56.925Z,83.53
2018-09-12T23:36:25.371Z,84.33
2018-09-12T23:38:53.772Z,85.29
2018-09-12T23:41:22.324Z,85.06
2018-09-12T23:43:51.315Z,86.39
2018-09-12T23:46:19.939Z,87.28
2018-09-12T23:48:48.277Z,88.16
2018-09-12T23:51:17.063Z,88.66
2018-09-12T23:53:45.482Z,88.96
2018-09-12T23:56:13.993Z,90.31
2018-09-12T23:58:42.505Z,91.97
